Fs Ipanema — A8PT6 — position and weather

sailwx.info

Track history (hours):
 
Tides and Currents Weather Stations Pressure Air Temp Water Temp Dewpoint Dewpoint Depression Visibility Wind Speed Wind Dir Waves Ship Positions

Fs Ipanema

Last reported at 2018-May-12 23:51 UTC. Time now 2018-May-22 17:32 UTC.
Position N 25°31' W 079°38'.
Warning: this ship's position is 9 days out of date.

Length 180 m; draft 8.3 m.

Type: Cargo ship. MMSI: 636018056.

Date/timePositionNaut miles runAvg speedWind from/ knotsBaromVisibWave heightAir tempDewpointWater temp
2018-May-12 23:51N 25°31' W 079°38'516.1
2018-May-12 23:31N 25°37' W 079°39'815.9
2018-May-12 23:01N 25°45' W 079°40'815.5
2018-May-12 22:31N 25°52' W 079°42'611.4
2018-May-12 22:00N 25°57' W 079°45'5 9.3
2018-May-12 21:30N 26°01' W 079°48'4 8.4
2018-May-12 21:00N 26°03' W 079°52'5 9.2
2018-May-12 20:30N 26°06' W 079°56'1 2.5
2018-May-12 20:00N 26°05' W 079°57'1 2.9
2018-May-12 19:30N 26°04' W 079°57'2 3.1
2018-May-12 19:00N 26°03' W 079°58'510.3
2018-May-12 18:30N 26°05' W 080°03'4 7.1
2018-May-12 18:00N 26°05' W 080°07'1 2.1
2018-May-12 17:29N 26°04' W 080°07'0 0.0
2018-May-12 16:59N 26°04' W 080°07'0 0.0
2018-May-12 16:29N 26°04' W 080°07'0 0.0
2018-May-12 15:59N 26°04' W 080°07'0 0.0
2018-May-12 15:29N 26°04' W 080°07'0 0.0
2018-May-12 14:59N 26°04' W 080°07'0 0.0
2018-May-12 14:29N 26°04' W 080°07'0 0.0
2018-May-12 13:59N 26°04' W 080°07'0 0.0
2018-May-12 13:29N 26°04' W 080°07'0 0.0
2018-May-12 12:59N 26°04' W 080°07'0 0.0
2018-May-12 12:29N 26°04' W 080°07'0 0.0
2018-May-12 11:59N 26°04' W 080°07'0 0.0
2018-May-12 11:29N 26°04' W 080°07'0 0.0
2018-May-12 10:59N 26°04' W 080°07'0 0.0
2018-May-12 10:29N 26°04' W 080°07'0 0.0
2018-May-12 09:59N 26°04' W 080°07'0 0.0
2018-May-12 09:29N 26°04' W 080°07'0 0.0
2018-May-12 08:59N 26°04' W 080°07'0 0.0
2018-May-12 08:29N 26°04' W 080°07'0 0.0
2018-May-12 07:59N 26°04' W 080°07'0 0.0
2018-May-12 07:29N 26°04' W 080°07'0 0.0
2018-May-12 06:59N 26°04' W 080°07'0 0.0
2018-May-12 06:29N 26°04' W 080°07'0 0.0
2018-May-12 05:59N 26°04' W 080°07'0 0.0
2018-May-12 05:29N 26°04' W 080°07'0 0.0
2018-May-12 04:59N 26°04' W 080°07'0 0.0
2018-May-12 04:29N 26°04' W 080°07'0 0.0
2018-May-12 03:59N 26°04' W 080°07'0 0.0
2018-May-12 03:29N 26°04' W 080°07'0 0.0
2018-May-12 02:59N 26°04' W 080°07'0 0.0
2018-May-12 02:29N 26°04' W 080°07'0 0.0
2018-May-12 01:59N 26°04' W 080°07'0 0.0
2018-May-12 01:29N 26°04' W 080°07'0 0.0
2018-May-12 00:59N 26°04' W 080°07'0 0.0
2018-May-12 00:29N 26°04' W 080°07'0 0.0
2018-May-11 23:59N 26°04' W 080°07'0 0.0
2018-May-11 23:29N 26°04' W 080°07'0 0.0
2018-May-11 22:59N 26°04' W 080°07'0 0.0
2018-May-11 22:29N 26°04' W 080°07'0 0.0
2018-May-11 21:59N 26°04' W 080°07'0 0.6
2018-May-11 21:30N 26°05' W 080°07'1 2.4
2018-May-11 20:59N 26°06' W 080°07'0 0.0
2018-May-11 20:29N 26°06' W 080°07'0 0.0
2018-May-11 19:59N 26°06' W 080°07'0 0.0
2018-May-11 19:29N 26°06' W 080°07'0 0.0
2018-May-11 18:59N 26°06' W 080°07'0 0.0
2018-May-11 18:29N 26°06' W 080°07'0 0.0
2018-May-11 17:59N 26°06' W 080°07'0 0.0
2018-May-11 17:29N 26°06' W 080°07'0 0.0
2018-May-11 16:59N 26°06' W 080°07'0 0.0
2018-May-11 16:29N 26°06' W 080°07'0 0.0
2018-May-11 15:59N 26°06' W 080°07'0 0.0
2018-May-11 15:30N 26°06' W 080°07'1 2.1
2018-May-11 15:00N 26°05' W 080°07'0 0.8
2018-May-11 14:30N 26°04' W 080°07'0 0.0
2018-May-11 14:00N 26°04' W 080°07'0 0.0
2018-May-11 13:30N 26°04' W 080°07'0 0.0
2018-May-11 13:00N 26°04' W 080°07'0 0.0
2018-May-11 12:30N 26°04' W 080°07'0 0.0
2018-May-11 12:00N 26°04' W 080°07'0 0.0
2018-May-11 11:30N 26°04' W 080°07'0 0.0
2018-May-11 11:00N 26°04' W 080°07'0 0.0
2018-May-11 10:30N 26°04' W 080°07'0 0.0
2018-May-11 10:00N 26°04' W 080°07'0 0.0
2018-May-11 09:30N 26°04' W 080°07'0 0.0
2018-May-11 09:00N 26°04' W 080°07'0 0.0
2018-May-11 08:30N 26°04' W 080°07'0 0.0
2018-May-11 08:00N 26°04' W 080°07'0 0.0
2018-May-11 07:30N 26°04' W 080°07'0 0.0
2018-May-11 07:00N 26°04' W 080°07'0 0.0
2018-May-11 06:31N 26°04' W 080°07'1 1.5
2018-May-11 06:00N 26°05' W 080°07'0 0.0
2018-May-11 05:30N 26°05' W 080°07'0 0.0
2018-May-11 05:00N 26°05' W 080°07'0 0.0
2018-May-11 04:30N 26°05' W 080°07'0 0.0
2018-May-11 04:00N 26°05' W 080°07'0 0.0
2018-May-11 03:30N 26°05' W 080°07'0 0.0
2018-May-11 03:00N 26°05' W 080°07'0 0.0
2018-May-11 02:30N 26°05' W 080°07'0 0.0
2018-May-11 02:00N 26°05' W 080°07'0 0.0
2018-May-11 01:30N 26°05' W 080°07'0 0.0
2018-May-11 01:00N 26°05' W 080°07'0 0.0
2018-May-11 00:30N 26°05' W 080°07'0 0.0
2018-May-11 00:00N 26°05' W 080°07'0 0.0
2018-May-10 23:30N 26°05' W 080°07'0 0.0
2018-May-10 23:00N 26°05' W 080°07'0 0.0
2018-May-10 22:30N 26°05' W 080°07'0 0.0
2018-May-10 22:00N 26°05' W 080°07'0 0.0
2018-May-10 21:30N 26°05' W 080°07'0 0.0
2018-May-10 21:00N 26°05' W 080°07'0 0.0
2018-May-10 20:30N 26°05' W 080°07'0 0.0
2018-May-10 20:00N 26°05' W 080°07'0 0.0
2018-May-10 19:30N 26°05' W 080°07'0 0.0
2018-May-10 19:00N 26°05' W 080°07'0 0.0
2018-May-10 18:30N 26°05' W 080°07'0 0.0
2018-May-10 18:00N 26°05' W 080°07'0 0.0
2018-May-10 17:30N 26°05' W 080°07'0 0.0
2018-May-10 17:00N 26°05' W 080°07'0 0.0
2018-May-10 16:30N 26°05' W 080°07'0 0.0
2018-May-10 16:00N 26°05' W 080°07'0 0.0
2018-May-10 15:30N 26°05' W 080°07'0 0.0
2018-May-10 15:00N 26°05' W 080°07'0 0.0
2018-May-10 14:30N 26°05' W 080°07'0 0.0
2018-May-10 14:00N 26°05' W 080°07'0 0.0
2018-May-10 13:30N 26°05' W 080°07'0 0.0
2018-May-10 13:00N 26°05' W 080°07'0 0.0
2018-May-10 12:30N 26°05' W 080°07'0 0.0
2018-May-10 12:00N 26°05' W 080°07'0 0.0
2018-May-10 11:30N 26°05' W 080°07'0 0.0
2018-May-10 11:00N 26°05' W 080°07'0 0.0
2018-May-10 10:30N 26°05' W 080°07'0 0.0
2018-May-10 10:00N 26°05' W 080°07'0 0.0
2018-May-10 09:30N 26°05' W 080°07'0 0.0
2018-May-10 09:00N 26°05' W 080°07'0 0.0
2018-May-10 08:30N 26°05' W 080°07'0 0.0
2018-May-10 08:00N 26°05' W 080°07'0 0.0
2018-May-10 07:30N 26°05' W 080°07'0 0.0
2018-May-10 07:00N 26°05' W 080°07'0 0.0
2018-May-10 06:30N 26°05' W 080°07'0 0.0
2018-May-10 06:00N 26°05' W 080°07'0 0.0
2018-May-10 05:30N 26°05' W 080°07'0 0.0
2018-May-10 05:00N 26°05' W 080°07'0 0.0
2018-May-10 04:30N 26°05' W 080°07'0 0.0
2018-May-10 04:00N 26°05' W 080°07'0 0.0
2018-May-10 03:30N 26°05' W 080°07'0 0.0
2018-May-10 03:00N 26°05' W 080°07'0 0.0
2018-May-10 02:30N 26°05' W 080°07'0 0.0
2018-May-10 02:00N 26°05' W 080°07'0 0.0
2018-May-10 01:30N 26°05' W 080°07'0 0.0
2018-May-10 01:00N 26°05' W 080°07'0 0.0
2018-May-10 00:30N 26°05' W 080°07'0 0.0
2018-May-10 00:00N 26°05' W 080°07'0 0.0
2018-May-09 23:30N 26°05' W 080°07'0 0.0
2018-May-09 23:00N 26°05' W 080°07'0 0.0
2018-May-09 22:30N 26°05' W 080°07'0 0.0
2018-May-09 22:00N 26°05' W 080°07'0 0.0
2018-May-09 21:30N 26°05' W 080°07'0 0.0
2018-May-09 21:00N 26°05' W 080°07'0 0.0
2018-May-09 20:30N 26°05' W 080°07'0 0.0
2018-May-09 20:00N 26°05' W 080°07'0 0.0
2018-May-09 19:30N 26°05' W 080°07'0 0.0
2018-May-09 19:00N 26°05' W 080°07'0 0.0
2018-May-09 18:30N 26°05' W 080°07'0 0.0
2018-May-09 18:00N 26°05' W 080°07'0 0.0
2018-May-09 17:30N 26°05' W 080°07'0 0.0
2018-May-09 17:00N 26°05' W 080°07'0 0.0
2018-May-09 16:30N 26°05' W 080°07'0 0.0
2018-May-09 16:00N 26°05' W 080°07'0 0.0
2018-May-09 15:30N 26°05' W 080°07'0 0.0
2018-May-09 15:00N 26°05' W 080°07'0 0.0
2018-May-09 14:30N 26°05' W 080°07'0 0.0
2018-May-09 14:00N 26°05' W 080°07'1 1.2
2018-May-09 13:30N 26°06' W 080°06'3 6.8
2018-May-09 13:00N 26°05' W 080°03'4 7.1
2018-May-09 12:30N 26°05' W 079°59'4 7.3
2018-May-09 12:00N 26°03' W 079°55'4 8.0
2018-May-09 11:30N 26°01' W 079°51'4 8.1
2018-May-09 11:00N 25°59' W 079°47'4 8.3
2018-May-09 10:30N 25°57' W 079°43'4 7.3
2018-May-09 10:00N 25°55' W 079°40'5 9.0
2018-May-09 09:30N 25°50' W 079°40'5 9.2
2018-May-09 09:00N 25°46' W 079°40'5 9.1
2018-May-09 08:30N 25°41' W 079°40'5 9.1
2018-May-09 08:00N 25°37' W 079°40'5 9.9
2018-May-09 07:30N 25°32' W 079°40'713.6
2018-May-09 07:00N 25°25' W 079°40'  
Track history (hours):
 
Tides and Currents Weather Stations Pressure Air Temp Water Temp Dewpoint Dewpoint Depression Visibility Wind Speed Wind Dir Waves Ship Positions

Fs Ipanema

Last reported at 2018-May-12 23:51 UTC. Time now 2018-May-22 17:32 UTC.
Position N 25°31' W 079°38'.
Warning: this ship's position is 9 days out of date.

Length 180 m; draft 8.3 m.

Type: Cargo ship. MMSI: 636018056.

Date/timePositionNaut miles runAvg speedWind from/ knotsBaromVisibWave heightAir tempDewpointWater temp
2018-May-12 23:51N 25°31' W 079°38'516.1
2018-May-12 23:31N 25°37' W 079°39'815.9
2018-May-12 23:01N 25°45' W 079°40'815.5
2018-May-12 22:31N 25°52' W 079°42'611.4
2018-May-12 22:00N 25°57' W 079°45'5 9.3
2018-May-12 21:30N 26°01' W 079°48'4 8.4
2018-May-12 21:00N 26°03' W 079°52'5 9.2
2018-May-12 20:30N 26°06' W 079°56'1 2.5
2018-May-12 20:00N 26°05' W 079°57'1 2.9
2018-May-12 19:30N 26°04' W 079°57'2 3.1
2018-May-12 19:00N 26°03' W 079°58'510.3
2018-May-12 18:30N 26°05' W 080°03'4 7.1
2018-May-12 18:00N 26°05' W 080°07'1 2.1
2018-May-12 17:29N 26°04' W 080°07'0 0.0
2018-May-12 16:59N 26°04' W 080°07'0 0.0
2018-May-12 16:29N 26°04' W 080°07'0 0.0
2018-May-12 15:59N 26°04' W 080°07'0 0.0
2018-May-12 15:29N 26°04' W 080°07'0 0.0
2018-May-12 14:59N 26°04' W 080°07'0 0.0
2018-May-12 14:29N 26°04' W 080°07'0 0.0
2018-May-12 13:59N 26°04' W 080°07'0 0.0
2018-May-12 13:29N 26°04' W 080°07'0 0.0
2018-May-12 12:59N 26°04' W 080°07'0 0.0
2018-May-12 12:29N 26°04' W 080°07'0 0.0
2018-May-12 11:59N 26°04' W 080°07'0 0.0
2018-May-12 11:29N 26°04' W 080°07'0 0.0
2018-May-12 10:59N 26°04' W 080°07'0 0.0
2018-May-12 10:29N 26°04' W 080°07'0 0.0
2018-May-12 09:59N 26°04' W 080°07'0 0.0
2018-May-12 09:29N 26°04' W 080°07'0 0.0
2018-May-12 08:59N 26°04' W 080°07'0 0.0
2018-May-12 08:29N 26°04' W 080°07'0 0.0
2018-May-12 07:59N 26°04' W 080°07'0 0.0
2018-May-12 07:29N 26°04' W 080°07'0 0.0
2018-May-12 06:59N 26°04' W 080°07'0 0.0
2018-May-12 06:29N 26°04' W 080°07'0 0.0
2018-May-12 05:59N 26°04' W 080°07'0 0.0
2018-May-12 05:29N 26°04' W 080°07'0 0.0
2018-May-12 04:59N 26°04' W 080°07'0 0.0
2018-May-12 04:29N 26°04' W 080°07'0 0.0
2018-May-12 03:59N 26°04' W 080°07'0 0.0
2018-May-12 03:29N 26°04' W 080°07'0 0.0
2018-May-12 02:59N 26°04' W 080°07'0 0.0
2018-May-12 02:29N 26°04' W 080°07'0 0.0
2018-May-12 01:59N 26°04' W 080°07'0 0.0
2018-May-12 01:29N 26°04' W 080°07'0 0.0
2018-May-12 00:59N 26°04' W 080°07'0 0.0
2018-May-12 00:29N 26°04' W 080°07'0 0.0
2018-May-11 23:59N 26°04' W 080°07'0 0.0
2018-May-11 23:29N 26°04' W 080°07'0 0.0
2018-May-11 22:59N 26°04' W 080°07'0 0.0
2018-May-11 22:29N 26°04' W 080°07'0 0.0
2018-May-11 21:59N 26°04' W 080°07'0 0.6
2018-May-11 21:30N 26°05' W 080°07'1 2.4
2018-May-11 20:59N 26°06' W 080°07'0 0.0
2018-May-11 20:29N 26°06' W 080°07'0 0.0
2018-May-11 19:59N 26°06' W 080°07'0 0.0
2018-May-11 19:29N 26°06' W 080°07'0 0.0
2018-May-11 18:59N 26°06' W 080°07'0 0.0
2018-May-11 18:29N 26°06' W 080°07'0 0.0
2018-May-11 17:59N 26°06' W 080°07'0 0.0
2018-May-11 17:29N 26°06' W 080°07'0 0.0
2018-May-11 16:59N 26°06' W 080°07'0 0.0
2018-May-11 16:29N 26°06' W 080°07'0 0.0
2018-May-11 15:59N 26°06' W 080°07'0 0.0
2018-May-11 15:30N 26°06' W 080°07'1 2.1
2018-May-11 15:00N 26°05' W 080°07'0 0.8
2018-May-11 14:30N 26°04' W 080°07'0 0.0
2018-May-11 14:00N 26°04' W 080°07'0 0.0
2018-May-11 13:30N 26°04' W 080°07'0 0.0
2018-May-11 13:00N 26°04' W 080°07'0 0.0
2018-May-11 12:30N 26°04' W 080°07'0 0.0
2018-May-11 12:00N 26°04' W 080°07'0 0.0
2018-May-11 11:30N 26°04' W 080°07'0 0.0
2018-May-11 11:00N 26°04' W 080°07'0 0.0
2018-May-11 10:30N 26°04' W 080°07'0 0.0
2018-May-11 10:00N 26°04' W 080°07'0 0.0
2018-May-11 09:30N 26°04' W 080°07'0 0.0
2018-May-11 09:00N 26°04' W 080°07'0 0.0
2018-May-11 08:30N 26°04' W 080°07'0 0.0
2018-May-11 08:00N 26°04' W 080°07'0 0.0
2018-May-11 07:30N 26°04' W 080°07'0 0.0
2018-May-11 07:00N 26°04' W 080°07'0 0.0
2018-May-11 06:31N 26°04' W 080°07'1 1.5
2018-May-11 06:00N 26°05' W 080°07'0 0.0
2018-May-11 05:30N 26°05' W 080°07'0 0.0
2018-May-11 05:00N 26°05' W 080°07'0 0.0
2018-May-11 04:30N 26°05' W 080°07'0 0.0
2018-May-11 04:00N 26°05' W 080°07'0 0.0
2018-May-11 03:30N 26°05' W 080°07'0 0.0
2018-May-11 03:00N 26°05' W 080°07'0 0.0
2018-May-11 02:30N 26°05' W 080°07'0 0.0
2018-May-11 02:00N 26°05' W 080°07'0 0.0
2018-May-11 01:30N 26°05' W 080°07'0 0.0
2018-May-11 01:00N 26°05' W 080°07'0 0.0
2018-May-11 00:30N 26°05' W 080°07'0 0.0
2018-May-11 00:00N 26°05' W 080°07'0 0.0
2018-May-10 23:30N 26°05' W 080°07'0 0.0
2018-May-10 23:00N 26°05' W 080°07'0 0.0
2018-May-10 22:30N 26°05' W 080°07'0 0.0
2018-May-10 22:00N 26°05' W 080°07'0 0.0
2018-May-10 21:30N 26°05' W 080°07'0 0.0
2018-May-10 21:00N 26°05' W 080°07'0 0.0
2018-May-10 20:30N 26°05' W 080°07'0 0.0
2018-May-10 20:00N 26°05' W 080°07'0 0.0
2018-May-10 19:30N 26°05' W 080°07'0 0.0
2018-May-10 19:00N 26°05' W 080°07'0 0.0
2018-May-10 18:30N 26°05' W 080°07'0 0.0
2018-May-10 18:00N 26°05' W 080°07'0 0.0
2018-May-10 17:30N 26°05' W 080°07'0 0.0
2018-May-10 17:00N 26°05' W 080°07'0 0.0
2018-May-10 16:30N 26°05' W 080°07'0 0.0
2018-May-10 16:00N 26°05' W 080°07'0 0.0
2018-May-10 15:30N 26°05' W 080°07'0 0.0
2018-May-10 15:00N 26°05' W 080°07'0 0.0
2018-May-10 14:30N 26°05' W 080°07'0 0.0
2018-May-10 14:00N 26°05' W 080°07'0 0.0
2018-May-10 13:30N 26°05' W 080°07'0 0.0
2018-May-10 13:00N 26°05' W 080°07'0 0.0
2018-May-10 12:30N 26°05' W 080°07'0 0.0
2018-May-10 12:00N 26°05' W 080°07'0 0.0
2018-May-10 11:30N 26°05' W 080°07'0 0.0
2018-May-10 11:00N 26°05' W 080°07'0 0.0
2018-May-10 10:30N 26°05' W 080°07'0 0.0
2018-May-10 10:00N 26°05' W 080°07'0 0.0
2018-May-10 09:30N 26°05' W 080°07'0 0.0
2018-May-10 09:00N 26°05' W 080°07'0 0.0
2018-May-10 08:30N 26°05' W 080°07'0 0.0
2018-May-10 08:00N 26°05' W 080°07'0 0.0
2018-May-10 07:30N 26°05' W 080°07'0 0.0
2018-May-10 07:00N 26°05' W 080°07'0 0.0
2018-May-10 06:30N 26°05' W 080°07'0 0.0
2018-May-10 06:00N 26°05' W 080°07'0 0.0
2018-May-10 05:30N 26°05' W 080°07'0 0.0
2018-May-10 05:00N 26°05' W 080°07'0 0.0
2018-May-10 04:30N 26°05' W 080°07'0 0.0
2018-May-10 04:00N 26°05' W 080°07'0 0.0
2018-May-10 03:30N 26°05' W 080°07'0 0.0
2018-May-10 03:00N 26°05' W 080°07'0 0.0
2018-May-10 02:30N 26°05' W 080°07'0 0.0
2018-May-10 02:00N 26°05' W 080°07'0 0.0
2018-May-10 01:30N 26°05' W 080°07'0 0.0
2018-May-10 01:00N 26°05' W 080°07'0 0.0
2018-May-10 00:30N 26°05' W 080°07'0 0.0
2018-May-10 00:00N 26°05' W 080°07'0 0.0
2018-May-09 23:30N 26°05' W 080°07'0 0.0
2018-May-09 23:00N 26°05' W 080°07'0 0.0
2018-May-09 22:30N 26°05' W 080°07'0 0.0
2018-May-09 22:00N 26°05' W 080°07'0 0.0
2018-May-09 21:30N 26°05' W 080°07'0 0.0
2018-May-09 21:00N 26°05' W 080°07'0 0.0
2018-May-09 20:30N 26°05' W 080°07'0 0.0
2018-May-09 20:00N 26°05' W 080°07'0 0.0
2018-May-09 19:30N 26°05' W 080°07'0 0.0
2018-May-09 19:00N 26°05' W 080°07'0 0.0
2018-May-09 18:30N 26°05' W 080°07'0 0.0
2018-May-09 18:00N 26°05' W 080°07'0 0.0
2018-May-09 17:30N 26°05' W 080°07'0 0.0
2018-May-09 17:00N 26°05' W 080°07'0 0.0
2018-May-09 16:30N 26°05' W 080°07'0 0.0
2018-May-09 16:00N 26°05' W 080°07'0 0.0
2018-May-09 15:30N 26°05' W 080°07'0 0.0
2018-May-09 15:00N 26°05' W 080°07'0 0.0
2018-May-09 14:30N 26°05' W 080°07'0 0.0
2018-May-09 14:00N 26°05' W 080°07'1 1.2
2018-May-09 13:30N 26°06' W 080°06'3 6.8
2018-May-09 13:00N 26°05' W 080°03'4 7.1
2018-May-09 12:30N 26°05' W 079°59'4 7.3
2018-May-09 12:00N 26°03' W 079°55'4 8.0
2018-May-09 11:30N 26°01' W 079°51'4 8.1
2018-May-09 11:00N 25°59' W 079°47'4 8.3
2018-May-09 10:30N 25°57' W 079°43'4 7.3
2018-May-09 10:00N 25°55' W 079°40'5 9.0
2018-May-09 09:30N 25°50' W 079°40'5 9.2
2018-May-09 09:00N 25°46' W 079°40'5 9.1
2018-May-09 08:30N 25°41' W 079°40'5 9.1
2018-May-09 08:00N 25°37' W 079°40'5 9.9
2018-May-09 07:30N 25°32' W 079°40'713.6
2018-May-09 07:00N 25°25' W 079°40'  

Dump ship's entire track history